sensor_id;sensor_type;location;lat;lon;timestamp;noise_LAeq;noise_LA_min;noise_LA_max;noise_LA01;noise_LA95
38366;Laerm;943;51.568;6.998;2023-05-18T00:00:06;40.11;35.97;47.16;;
38366;Laerm;943;51.568;6.998;2023-05-18T00:02:41;42.30;36.05;52.95;;
38366;Laerm;943;51.568;6.998;2023-05-18T00:05:10;43.74;38.12;50.80;;
38366;Laerm;943;51.568;6.998;2023-05-18T00:07:38;43.07;36.81;55.83;;
38366;Laerm;943;51.568;6.998;2023-05-18T00:10:09;41.21;36.54;49.76;;
38366;Laerm;943;51.568;6.998;2023-05-18T00:12:39;42.03;36.90;47.89;;
38366;Laerm;943;51.568;6.998;2023-05-18T00:15:07;42.36;36.17;59.68;;
38366;Laerm;943;51.568;6.998;2023-05-18T00:17:36;40.03;35.77;55.28;;
38366;Laerm;943;51.568;6.998;2023-05-18T00:20:11;42.58;37.58;52.18;;
38366;Laerm;943;51.568;6.998;2023-05-18T00:22:40;39.72;34.58;44.99;;
38366;Laerm;943;51.568;6.998;2023-05-18T00:25:09;38.20;34.15;54.52;;
38366;Laerm;943;51.568;6.998;2023-05-18T00:27:38;41.13;35.26;50.86;;
38366;Laerm;943;51.568;6.998;2023-05-18T00:30:07;38.96;34.41;48.85;;
38366;Laerm;943;51.568;6.998;2023-05-18T00:32:35;39.48;34.99;49.12;;
38366;Laerm;943;51.568;6.998;2023-05-18T00:35:04;38.12;34.16;44.24;;
38366;Laerm;943;51.568;6.998;2023-05-18T00:37:32;40.41;35.77;53.19;;
38366;Laerm;943;51.568;6.998;2023-05-18T00:40:00;39.27;35.25;46.07;;
38366;Laerm;943;51.568;6.998;2023-05-18T00:42:28;43.97;35.39;54.21;;
38366;Laerm;943;51.568;6.998;2023-05-18T00:44:56;38.24;34.20;42.74;;
38366;Laerm;943;51.568;6.998;2023-05-18T00:47:24;40.68;36.53;47.78;;
38366;Laerm;943;51.568;6.998;2023-05-18T00:49:54;40.68;36.17;48.01;;
38366;Laerm;943;51.568;6.998;2023-05-18T00:52:23;39.63;35.54;45.35;;
38366;Laerm;943;51.568;6.998;2023-05-18T00:54:52;39.35;35.17;45.17;;
38366;Laerm;943;51.568;6.998;2023-05-18T00:57:21;41.07;36.19;53.40;;
38366;Laerm;943;51.568;6.998;2023-05-18T00:59:49;41.35;35.70;50.02;;
38366;Laerm;943;51.568;6.998;2023-05-18T01:02:17;41.14;35.03;51.34;;
38366;Laerm;943;51.568;6.998;2023-05-18T01:04:47;39.65;34.47;46.68;;
38366;Laerm;943;51.568;6.998;2023-05-18T01:07:16;39.12;34.83;45.13;;
38366;Laerm;943;51.568;6.998;2023-05-18T01:09:44;40.16;36.29;48.88;;
38366;Laerm;943;51.568;6.998;2023-05-18T01:12:38;40.73;36.30;47.35;;
38366;Laerm;943;51.568;6.998;2023-05-18T01:15:17;41.78;36.38;53.15;;
38366;Laerm;943;51.568;6.998;2023-05-18T01:18:33;42.72;37.28;50.43;;
38366;Laerm;943;51.568;6.998;2023-05-18T01:22:06;42.50;36.79;50.04;;
38366;Laerm;943;51.568;6.998;2023-05-18T01:24:48;42.64;34.96;58.42;;
38366;Laerm;943;51.568;6.998;2023-05-18T01:27:23;39.90;34.86;51.82;;
38366;Laerm;943;51.568;6.998;2023-05-18T01:29:56;38.24;33.17;48.30;;
38366;Laerm;943;51.568;6.998;2023-05-18T01:32:24;38.85;34.45;44.15;;
38366;Laerm;943;51.568;6.998;2023-05-18T01:34:52;39.98;35.46;45.44;;
38366;Laerm;943;51.568;6.998;2023-05-18T01:37:21;39.68;35.74;51.14;;
38366;Laerm;943;51.568;6.998;2023-05-18T01:39:50;40.41;35.86;51.29;;
38366;Laerm;943;51.568;6.998;2023-05-18T01:42:27;40.48;35.57;61.85;;
38366;Laerm;943;51.568;6.998;2023-05-18T01:45:14;40.07;35.97;47.83;;
38366;Laerm;943;51.568;6.998;2023-05-18T01:47:47;40.50;35.81;55.49;;
38366;Laerm;943;51.568;6.998;2023-05-18T01:50:35;43.12;35.96;62.31;;
38366;Laerm;943;51.568;6.998;2023-05-18T01:55:47;38.51;35.00;44.02;;
38366;Laerm;943;51.568;6.998;2023-05-18T01:58:19;41.36;35.15;47.83;;
38366;Laerm;943;51.568;6.998;2023-05-18T02:00:49;41.57;36.76;48.61;;
38366;Laerm;943;51.568;6.998;2023-05-18T02:03:18;40.18;35.67;46.13;;
38366;Laerm;943;51.568;6.998;2023-05-18T02:05:46;41.49;36.98;47.02;;
38366;Laerm;943;51.568;6.998;2023-05-18T02:08:14;40.85;36.87;51.14;;
38366;Laerm;943;51.568;6.998;2023-05-18T02:10:44;41.19;35.55;51.13;;
38366;Laerm;943;51.568;6.998;2023-05-18T02:13:12;39.17;34.33;44.36;;
38366;Laerm;943;51.568;6.998;2023-05-18T02:15:40;40.10;35.29;46.09;;
38366;Laerm;943;51.568;6.998;2023-05-18T02:18:08;42.28;36.24;51.99;;
38366;Laerm;943;51.568;6.998;2023-05-18T02:20:36;41.55;34.77;54.62;;
38366;Laerm;943;51.568;6.998;2023-05-18T02:23:04;40.74;35.90;51.19;;
38366;Laerm;943;51.568;6.998;2023-05-18T02:25:33;49.84;36.89;68.53;;
38366;Laerm;943;51.568;6.998;2023-05-18T02:28:02;54.44;35.71;72.29;;
38366;Laerm;943;51.568;6.998;2023-05-18T02:30:29;52.21;36.62;71.75;;
38366;Laerm;943;51.568;6.998;2023-05-18T02:32:59;54.93;36.45;75.52;;
38366;Laerm;943;51.568;6.998;2023-05-18T02:35:27;58.91;36.83;78.05;;
38366;Laerm;943;51.568;6.998;2023-05-18T02:37:55;65.16;37.42;82.34;;
38366;Laerm;943;51.568;6.998;2023-05-18T02:40:25;64.51;37.99;80.96;;
38366;Laerm;943;51.568;6.998;2023-05-18T02:42:53;57.32;39.91;73.05;;
38366;Laerm;943;51.568;6.998;2023-05-18T02:45:21;56.45;39.87;69.82;;
38366;Laerm;943;51.568;6.998;2023-05-18T02:47:49;56.41;40.43;69.45;;
38366;Laerm;943;51.568;6.998;2023-05-18T02:50:17;60.07;40.67;72.91;;
38366;Laerm;943;51.568;6.998;2023-05-18T02:52:46;59.19;41.43;71.73;;
38366;Laerm;943;51.568;6.998;2023-05-18T02:55:16;59.33;40.39;72.88;;
38366;Laerm;943;51.568;6.998;2023-05-18T02:58:03;59.71;40.97;72.63;;
38366;Laerm;943;51.568;6.998;2023-05-18T03:00:50;59.43;41.90;72.31;;
38366;Laerm;943;51.568;6.998;2023-05-18T03:03:20;59.82;41.13;73.14;;
38366;Laerm;943;51.568;6.998;2023-05-18T03:05:49;59.55;41.13;72.88;;
38366;Laerm;943;51.568;6.998;2023-05-18T03:08:21;59.16;39.52;72.64;;
38366;Laerm;943;51.568;6.998;2023-05-18T03:10:54;58.11;39.75;71.56;;
38366;Laerm;943;51.568;6.998;2023-05-18T03:13:23;57.82;39.96;71.40;;
38366;Laerm;943;51.568;6.998;2023-05-18T03:15:51;58.58;39.43;72.41;;
38366;Laerm;943;51.568;6.998;2023-05-18T03:18:19;57.86;40.63;71.85;;
38366;Laerm;943;51.568;6.998;2023-05-18T03:20:48;48.89;37.73;69.62;;
38366;Laerm;943;51.568;6.998;2023-05-18T03:23:19;43.21;39.18;53.09;;
38366;Laerm;943;51.568;6.998;2023-05-18T03:25:49;49.08;38.26;67.10;;
38366;Laerm;943;51.568;6.998;2023-05-18T03:28:25;51.97;37.68;71.66;;
38366;Laerm;943;51.568;6.998;2023-05-18T03:30:54;52.28;39.77;71.01;;
38366;Laerm;943;51.568;6.998;2023-05-18T03:33:22;52.32;37.29;71.50;;
38366;Laerm;943;51.568;6.998;2023-05-18T03:35:50;49.46;38.30;71.73;;
38366;Laerm;943;51.568;6.998;2023-05-18T03:38:19;49.68;38.19;66.22;;
38366;Laerm;943;51.568;6.998;2023-05-18T03:40:54;51.29;36.86;70.80;;
38366;Laerm;943;51.568;6.998;2023-05-18T03:43:22;50.20;38.66;65.97;;
38366;Laerm;943;51.568;6.998;2023-05-18T03:45:53;50.53;39.00;70.72;;
38366;Laerm;943;51.568;6.998;2023-05-18T03:48:23;47.70;38.56;67.22;;
38366;Laerm;943;51.568;6.998;2023-05-18T03:50:53;42.66;38.33;48.50;;
38366;Laerm;943;51.568;6.998;2023-05-18T03:53:21;43.22;37.88;54.69;;
38366;Laerm;943;51.568;6.998;2023-05-18T03:55:50;48.66;39.21;66.53;;
38366;Laerm;943;51.568;6.998;2023-05-18T03:58:18;51.08;38.79;68.91;;
38366;Laerm;943;51.568;6.998;2023-05-18T04:00:47;51.22;40.45;69.48;;
38366;Laerm;943;51.568;6.998;2023-05-18T04:03:16;51.22;40.17;68.26;;
38366;Laerm;943;51.568;6.998;2023-05-18T04:05:44;57.49;40.26;72.70;;
38366;Laerm;943;51.568;6.998;2023-05-18T04:08:12;50.49;37.37;68.13;;
38366;Laerm;943;51.568;6.998;2023-05-18T04:10:43;50.52;38.48;68.45;;
38366;Laerm;943;51.568;6.998;2023-05-18T04:13:12;50.37;39.05;67.69;;
38366;Laerm;943;51.568;6.998;2023-05-18T04:15:39;49.69;39.07;67.28;;
38366;Laerm;943;51.568;6.998;2023-05-18T04:18:08;48.48;38.90;66.41;;
38366;Laerm;943;51.568;6.998;2023-05-18T04:20:37;47.89;37.55;65.77;;
38366;Laerm;943;51.568;6.998;2023-05-18T04:23:04;47.81;38.07;65.26;;
38366;Laerm;943;51.568;6.998;2023-05-18T04:25:32;48.57;39.47;64.49;;
38366;Laerm;943;51.568;6.998;2023-05-18T04:28:01;48.47;39.44;64.55;;
38366;Laerm;943;51.568;6.998;2023-05-18T04:30:29;48.00;39.19;64.97;;
38366;Laerm;943;51.568;6.998;2023-05-18T04:32:57;47.13;38.64;66.37;;
38366;Laerm;943;51.568;6.998;2023-05-18T04:35:27;56.20;38.03;73.05;;
38366;Laerm;943;51.568;6.998;2023-05-18T04:37:55;49.44;38.55;68.12;;
38366;Laerm;943;51.568;6.998;2023-05-18T04:40:23;48.58;39.08;67.31;;
38366;Laerm;943;51.568;6.998;2023-05-18T04:42:52;47.51;36.88;64.90;;
38366;Laerm;943;51.568;6.998;2023-05-18T04:45:26;47.81;38.33;63.47;;
38366;Laerm;943;51.568;6.998;2023-05-18T04:47:56;47.30;37.68;62.93;;
38366;Laerm;943;51.568;6.998;2023-05-18T04:50:25;44.39;36.71;60.90;;
38366;Laerm;943;51.568;6.998;2023-05-18T04:52:54;47.89;38.64;66.84;;
38366;Laerm;943;51.568;6.998;2023-05-18T04:55:26;47.88;36.89;65.79;;
38366;Laerm;943;51.568;6.998;2023-05-18T04:58:04;49.70;37.80;69.38;;
38366;Laerm;943;51.568;6.998;2023-05-18T05:00:32;49.23;37.93;68.41;;
38366;Laerm;943;51.568;6.998;2023-05-18T05:03:01;49.48;37.10;69.88;;
38366;Laerm;943;51.568;6.998;2023-05-18T05:05:29;48.11;37.41;70.29;;
38366;Laerm;943;51.568;6.998;2023-05-18T05:07:57;48.64;37.30;68.63;;
38366;Laerm;943;51.568;6.998;2023-05-18T05:10:26;50.45;37.80;72.45;;
38366;Laerm;943;51.568;6.998;2023-05-18T05:12:54;52.96;37.60;70.08;;
38366;Laerm;943;51.568;6.998;2023-05-18T05:15:24;47.90;36.73;63.44;;
38366;Laerm;943;51.568;6.998;2023-05-18T05:17:53;50.18;38.02;68.99;;
38366;Laerm;943;51.568;6.998;2023-05-18T05:20:22;47.78;35.58;63.69;;
38366;Laerm;943;51.568;6.998;2023-05-18T05:22:52;46.89;35.31;65.06;;
38366;Laerm;943;51.568;6.998;2023-05-18T05:25:24;47.01;35.79;66.72;;
38366;Laerm;943;51.568;6.998;2023-05-18T05:27:52;46.87;36.68;64.43;;
38366;Laerm;943;51.568;6.998;2023-05-18T05:30:21;46.42;36.06;65.05;;
38366;Laerm;943;51.568;6.998;2023-05-18T05:32:49;47.20;36.06;65.42;;
38366;Laerm;943;51.568;6.998;2023-05-18T05:35:18;45.46;35.29;64.83;;
38366;Laerm;943;51.568;6.998;2023-05-18T05:37:46;51.02;35.50;80.58;;
38366;Laerm;943;51.568;6.998;2023-05-18T05:40:16;43.22;36.20;62.60;;
38366;Laerm;943;51.568;6.998;2023-05-18T05:42:45;46.31;35.83;62.89;;
38366;Laerm;943;51.568;6.998;2023-05-18T05:45:14;44.67;35.34;66.58;;
38366;Laerm;943;51.568;6.998;2023-05-18T05:47:45;45.16;38.57;63.72;;
38366;Laerm;943;51.568;6.998;2023-05-18T05:50:16;41.21;33.59;60.63;;
38366;Laerm;943;51.568;6.998;2023-05-18T05:52:46;46.69;37.51;61.78;;
38366;Laerm;943;51.568;6.998;2023-05-18T05:55:14;47.39;36.35;63.93;;
38366;Laerm;943;51.568;6.998;2023-05-18T05:57:43;55.44;36.79;75.58;;
38366;Laerm;943;51.568;6.998;2023-05-18T06:00:13;47.02;38.12;63.23;;
38366;Laerm;943;51.568;6.998;2023-05-18T06:02:47;45.10;36.93;67.54;;
38366;Laerm;943;51.568;6.998;2023-05-18T06:05:24;43.90;38.14;55.61;;
38366;Laerm;943;51.568;6.998;2023-05-18T06:07:56;43.68;37.80;69.80;;
38366;Laerm;943;51.568;6.998;2023-05-18T06:10:24;47.78;37.12;73.44;;
38366;Laerm;943;51.568;6.998;2023-05-18T06:12:53;43.13;36.75;55.43;;
38366;Laerm;943;51.568;6.998;2023-05-18T06:15:25;42.18;35.75;55.21;;
38366;Laerm;943;51.568;6.998;2023-05-18T06:17:53;43.32;37.56;55.52;;
38366;Laerm;943;51.568;6.998;2023-05-18T06:20:22;50.44;40.45;68.62;;
38366;Laerm;943;51.568;6.998;2023-05-18T06:22:50;42.79;38.22;54.54;;
38366;Laerm;943;51.568;6.998;2023-05-18T06:25:25;43.98;38.00;53.24;;
38366;Laerm;943;51.568;6.998;2023-05-18T06:28:08;42.95;36.83;61.48;;
38366;Laerm;943;51.568;6.998;2023-05-18T06:30:49;52.26;38.46;76.10;;
38366;Laerm;943;51.568;6.998;2023-05-18T06:33:43;56.92;38.21;79.11;;
38366;Laerm;943;51.568;6.998;2023-05-18T06:36:12;47.97;36.18;71.20;;
38366;Laerm;943;51.568;6.998;2023-05-18T06:38:40;43.81;36.85;62.88;;
38366;Laerm;943;51.568;6.998;2023-05-18T06:41:08;46.75;37.98;68.62;;
38366;Laerm;943;51.568;6.998;2023-05-18T06:43:36;45.98;37.45;68.35;;
38366;Laerm;943;51.568;6.998;2023-05-18T06:46:22;45.77;37.49;68.74;;
38366;Laerm;943;51.568;6.998;2023-05-18T06:48:54;45.31;38.73;69.20;;
38366;Laerm;943;51.568;6.998;2023-05-18T06:51:23;41.09;35.12;57.04;;
38366;Laerm;943;51.568;6.998;2023-05-18T06:53:53;46.22;35.95;67.00;;
38366;Laerm;943;51.568;6.998;2023-05-18T06:56:22;44.47;37.54;65.16;;
38366;Laerm;943;51.568;6.998;2023-05-18T06:58:51;46.06;37.78;65.83;;
38366;Laerm;943;51.568;6.998;2023-05-18T07:01:19;46.32;37.95;69.36;;
38366;Laerm;943;51.568;6.998;2023-05-18T07:03:47;45.22;37.39;68.88;;
38366;Laerm;943;51.568;6.998;2023-05-18T07:06:15;43.22;37.77;66.31;;
38366;Laerm;943;51.568;6.998;2023-05-18T07:08:44;41.53;36.25;55.18;;
38366;Laerm;943;51.568;6.998;2023-05-18T07:11:12;45.22;37.11;67.55;;
38366;Laerm;943;51.568;6.998;2023-05-18T07:13:40;44.31;37.54;61.18;;
38366;Laerm;943;51.568;6.998;2023-05-18T07:16:07;41.79;37.40;51.57;;
38366;Laerm;943;51.568;6.998;2023-05-18T07:18:36;46.59;40.76;60.62;;
38366;Laerm;943;51.568;6.998;2023-05-18T07:21:05;48.49;39.04;66.06;;
38366;Laerm;943;51.568;6.998;2023-05-18T07:23:33;48.44;37.35;65.01;;
38366;Laerm;943;51.568;6.998;2023-05-18T07:26:00;49.18;38.01;64.96;;
38366;Laerm;943;51.568;6.998;2023-05-18T07:28:29;50.31;38.72;59.61;;
38366;Laerm;943;51.568;6.998;2023-05-18T07:30:57;46.86;37.99;57.93;;
38366;Laerm;943;51.568;6.998;2023-05-18T07:33:25;43.68;39.04;53.47;;
38366;Laerm;943;51.568;6.998;2023-05-18T07:35:53;44.69;38.78;66.46;;
38366;Laerm;943;51.568;6.998;2023-05-18T07:38:20;43.00;38.98;65.20;;
38366;Laerm;943;51.568;6.998;2023-05-18T07:40:49;46.05;40.31;61.46;;
38366;Laerm;943;51.568;6.998;2023-05-18T07:43:16;46.06;38.81;67.64;;
38366;Laerm;943;51.568;6.998;2023-05-18T07:45:45;42.86;38.54;61.18;;
38366;Laerm;943;51.568;6.998;2023-05-18T07:48:12;44.30;37.20;63.30;;
38366;Laerm;943;51.568;6.998;2023-05-18T07:50:40;44.93;38.52;58.04;;
38366;Laerm;943;51.568;6.998;2023-05-18T07:53:08;46.53;39.88;58.30;;
38366;Laerm;943;51.568;6.998;2023-05-18T07:55:37;44.94;37.47;62.49;;
38366;Laerm;943;51.568;6.998;2023-05-18T07:58:05;44.17;39.27;52.94;;
38366;Laerm;943;51.568;6.998;2023-05-18T08:00:34;45.63;39.28;60.51;;
38366;Laerm;943;51.568;6.998;2023-05-18T08:03:04;45.21;39.96;56.79;;
38366;Laerm;943;51.568;6.998;2023-05-18T08:05:34;42.73;37.91;63.92;;
38366;Laerm;943;51.568;6.998;2023-05-18T08:08:03;44.15;38.49;60.70;;
38366;Laerm;943;51.568;6.998;2023-05-18T08:10:33;46.64;39.65;62.09;;
38366;Laerm;943;51.568;6.998;2023-05-18T08:13:01;43.52;38.27;62.14;;
38366;Laerm;943;51.568;6.998;2023-05-18T08:15:30;43.99;37.93;59.45;;
38366;Laerm;943;51.568;6.998;2023-05-18T08:17:58;51.26;39.60;80.50;;
38366;Laerm;943;51.568;6.998;2023-05-18T08:20:26;45.61;39.90;64.73;;
38366;Laerm;943;51.568;6.998;2023-05-18T08:22:57;43.60;38.12;62.21;;
38366;Laerm;943;51.568;6.998;2023-05-18T08:25:25;44.69;39.59;64.11;;
38366;Laerm;943;51.568;6.998;2023-05-18T08:27:53;53.41;39.78;75.74;;
38366;Laerm;943;51.568;6.998;2023-05-18T08:30:21;46.00;39.41;66.11;;
38366;Laerm;943;51.568;6.998;2023-05-18T08:32:49;54.27;40.81;66.79;;
38366;Laerm;943;51.568;6.998;2023-05-18T08:35:17;48.84;42.45;72.55;;
38366;Laerm;943;51.568;6.998;2023-05-18T08:37:45;50.62;41.04;65.62;;
38366;Laerm;943;51.568;6.998;2023-05-18T08:40:13;59.58;39.94;76.67;;
38366;Laerm;943;51.568;6.998;2023-05-18T08:43:10;45.12;39.10;66.13;;
38366;Laerm;943;51.568;6.998;2023-05-18T08:48:50;53.44;42.69;78.85;;
38366;Laerm;943;51.568;6.998;2023-05-18T08:51:21;63.05;43.78;88.13;;
38366;Laerm;943;51.568;6.998;2023-05-18T08:53:53;47.35;41.21;68.80;;
38366;Laerm;943;51.568;6.998;2023-05-18T08:56:24;47.84;39.84;60.06;;
38366;Laerm;943;51.568;6.998;2023-05-18T08:58:57;50.35;41.22;68.51;;
38366;Laerm;943;51.568;6.998;2023-05-18T09:01:26;53.70;39.38;74.83;;
38366;Laerm;943;51.568;6.998;2023-05-18T09:03:59;52.33;40.87;71.73;;
38366;Laerm;943;51.568;6.998;2023-05-18T09:06:27;48.22;40.88;67.04;;
38366;Laerm;943;51.568;6.998;2023-05-18T09:08:56;49.52;40.46;73.14;;
38366;Laerm;943;51.568;6.998;2023-05-18T09:11:26;53.19;39.49;72.24;;
38366;Laerm;943;51.568;6.998;2023-05-18T09:13:55;47.69;39.61;66.19;;
38366;Laerm;943;51.568;6.998;2023-05-18T09:16:23;47.83;38.60;73.02;;
38366;Laerm;943;51.568;6.998;2023-05-18T09:18:52;47.35;40.04;67.53;;
38366;Laerm;943;51.568;6.998;2023-05-18T09:21:21;49.81;38.98;70.02;;
38366;Laerm;943;51.568;6.998;2023-05-18T09:23:50;48.60;38.07;74.48;;
38366;Laerm;943;51.568;6.998;2023-05-18T09:26:19;46.09;40.30;66.94;;
38366;Laerm;943;51.568;6.998;2023-05-18T09:28:53;44.10;37.56;55.51;;
38366;Laerm;943;51.568;6.998;2023-05-18T09:31:22;45.04;37.95;64.87;;
38366;Laerm;943;51.568;6.998;2023-05-18T09:33:52;46.25;38.64;59.73;;
38366;Laerm;943;51.568;6.998;2023-05-18T09:36:25;48.26;40.26;73.21;;
38366;Laerm;943;51.568;6.998;2023-05-18T09:38:55;52.83;39.72;82.87;;
38366;Laerm;943;51.568;6.998;2023-05-18T09:41:26;48.90;39.97;76.16;;
38366;Laerm;943;51.568;6.998;2023-05-18T09:43:54;43.59;38.40;53.77;;
38366;Laerm;943;51.568;6.998;2023-05-18T09:46:22;46.98;39.27;58.97;;
38366;Laerm;943;51.568;6.998;2023-05-18T09:48:54;45.65;38.66;61.76;;
38366;Laerm;943;51.568;6.998;2023-05-18T09:51:22;47.05;40.95;65.85;;
38366;Laerm;943;51.568;6.998;2023-05-18T09:53:58;49.84;39.69;71.20;;
38366;Laerm;943;51.568;6.998;2023-05-18T09:56:27;60.60;39.28;83.72;;
38366;Laerm;943;51.568;6.998;2023-05-18T09:58:55;46.48;38.40;66.92;;
38366;Laerm;943;51.568;6.998;2023-05-18T10:01:23;46.19;37.87;67.10;;
38366;Laerm;943;51.568;6.998;2023-05-18T10:03:51;44.92;39.49;61.12;;
38366;Laerm;943;51.568;6.998;2023-05-18T10:06:26;49.75;38.60;68.20;;
38366;Laerm;943;51.568;6.998;2023-05-18T10:08:57;50.07;38.52;68.29;;
38366;Laerm;943;51.568;6.998;2023-05-18T10:11:31;50.09;37.83;68.68;;
38366;Laerm;943;51.568;6.998;2023-05-18T10:14:00;48.69;39.47;67.95;;
38366;Laerm;943;51.568;6.998;2023-05-18T10:16:28;45.97;39.45;65.64;;
38366;Laerm;943;51.568;6.998;2023-05-18T10:19:00;45.37;39.70;70.77;;
38366;Laerm;943;51.568;6.998;2023-05-18T10:21:32;48.16;39.78;68.75;;
38366;Laerm;943;51.568;6.998;2023-05-18T10:24:06;50.16;41.12;68.69;;
38366;Laerm;943;51.568;6.998;2023-05-18T10:26:41;52.36;38.66;73.07;;
38366;Laerm;943;51.568;6.998;2023-05-18T10:29:11;50.51;39.21;67.61;;
38366;Laerm;943;51.568;6.998;2023-05-18T10:31:41;50.56;38.95;67.98;;
38366;Laerm;943;51.568;6.998;2023-05-18T10:34:13;54.79;39.85;76.15;;
38366;Laerm;943;51.568;6.998;2023-05-18T10:36:42;47.11;39.10;67.04;;
38366;Laerm;943;51.568;6.998;2023-05-18T10:39:11;50.09;39.70;75.65;;
38366;Laerm;943;51.568;6.998;2023-05-18T10:41:41;43.02;37.81;55.05;;
38366;Laerm;943;51.568;6.998;2023-05-18T10:44:10;47.41;38.73;65.50;;
38366;Laerm;943;51.568;6.998;2023-05-18T10:46:40;49.17;37.98;66.20;;
38366;Laerm;943;51.568;6.998;2023-05-18T10:49:12;50.80;38.35;67.58;;
38366;Laerm;943;51.568;6.998;2023-05-18T10:51:47;51.40;38.14;69.16;;
38366;Laerm;943;51.568;6.998;2023-05-18T10:54:17;47.06;38.85;68.28;;
38366;Laerm;943;51.568;6.998;2023-05-18T10:56:51;46.24;37.81;61.42;;
38366;Laerm;943;51.568;6.998;2023-05-18T10:59:21;43.84;38.38;56.60;;
38366;Laerm;943;51.568;6.998;2023-05-18T11:01:54;46.03;37.41;66.49;;
38366;Laerm;943;51.568;6.998;2023-05-18T11:04:27;52.55;39.98;68.17;;
38366;Laerm;943;51.568;6.998;2023-05-18T11:07:00;52.46;39.35;69.39;;
38366;Laerm;943;51.568;6.998;2023-05-18T11:09:30;49.62;38.55;66.11;;
38366;Laerm;943;51.568;6.998;2023-05-18T11:11:59;50.42;39.36;66.53;;
38366;Laerm;943;51.568;6.998;2023-05-18T11:14:31;53.29;39.08;71.03;;
38366;Laerm;943;51.568;6.998;2023-05-18T11:17:25;51.93;39.84;69.45;;
38366;Laerm;943;51.568;6.998;2023-05-18T11:23:01;48.30;39.61;70.18;;
38366;Laerm;943;51.568;6.998;2023-05-18T11:28:07;44.06;38.13;62.93;;
38366;Laerm;943;51.568;6.998;2023-05-18T11:33:20;46.83;38.01;65.80;;
38366;Laerm;943;51.568;6.998;2023-05-18T11:36:13;49.43;38.20;67.34;;
38366;Laerm;943;51.568;6.998;2023-05-18T11:39:05;50.62;40.60;70.12;;
38366;Laerm;943;51.568;6.998;2023-05-18T11:41:39;49.34;38.84;66.07;;
38366;Laerm;943;51.568;6.998;2023-05-18T11:44:17;48.25;38.32;65.09;;
38366;Laerm;943;51.568;6.998;2023-05-18T11:47:08;49.25;39.24;66.59;;
38366;Laerm;943;51.568;6.998;2023-05-18T11:49:47;52.08;39.11;70.55;;
38366;Laerm;943;51.568;6.998;2023-05-18T11:52:23;54.24;39.91;80.11;;
38366;Laerm;943;51.568;6.998;2023-05-18T11:55:00;49.25;38.80;66.52;;
38366;Laerm;943;51.568;6.998;2023-05-18T12:00:08;51.64;40.77;75.27;;
38366;Laerm;943;51.568;6.998;2023-05-18T12:02:46;45.84;40.27;66.20;;
38366;Laerm;943;51.568;6.998;2023-05-18T12:05:15;44.02;39.42;56.38;;
38366;Laerm;943;51.568;6.998;2023-05-18T12:07:51;48.80;39.13;70.78;;
38366;Laerm;943;51.568;6.998;2023-05-18T12:10:25;46.95;40.30;70.31;;
38366;Laerm;943;51.568;6.998;2023-05-18T12:12:57;46.93;41.00;63.15;;
38366;Laerm;943;51.568;6.998;2023-05-18T12:15:29;52.05;40.64;72.51;;
38366;Laerm;943;51.568;6.998;2023-05-18T12:17:59;50.40;41.25;71.80;;
38366;Laerm;943;51.568;6.998;2023-05-18T12:20:28;46.25;40.01;61.06;;
38366;Laerm;943;51.568;6.998;2023-05-18T12:23:01;49.78;39.99;66.65;;
38366;Laerm;943;51.568;6.998;2023-05-18T12:25:29;54.18;41.02;76.09;;
38366;Laerm;943;51.568;6.998;2023-05-18T12:27:59;60.93;42.35;77.80;;
38366;Laerm;943;51.568;6.998;2023-05-18T12:30:28;47.17;39.90;60.70;;
38366;Laerm;943;51.568;6.998;2023-05-18T12:33:03;48.77;40.18;68.64;;
38366;Laerm;943;51.568;6.998;2023-05-18T12:35:31;46.65;40.03;67.91;;
38366;Laerm;943;51.568;6.998;2023-05-18T12:38:00;49.51;41.52;71.47;;
38366;Laerm;943;51.568;6.998;2023-05-18T12:40:37;54.49;39.97;78.94;;
38366;Laerm;943;51.568;6.998;2023-05-18T12:43:13;48.28;40.35;73.52;;
38366;Laerm;943;51.568;6.998;2023-05-18T12:45:43;43.40;38.69;60.86;;
38366;Laerm;943;51.568;6.998;2023-05-18T12:48:12;43.80;38.27;58.27;;
38366;Laerm;943;51.568;6.998;2023-05-18T12:50:50;54.64;41.18;78.87;;
38366;Laerm;943;51.568;6.998;2023-05-18T12:53:18;46.27;40.58;60.07;;
38366;Laerm;943;51.568;6.998;2023-05-18T12:55:57;56.78;41.07;77.99;;
38366;Laerm;943;51.568;6.998;2023-05-18T12:58:26;47.88;39.00;67.22;;
38366;Laerm;943;51.568;6.998;2023-05-18T13:00:54;45.34;39.53;64.06;;
38366;Laerm;943;51.568;6.998;2023-05-18T13:03:23;53.98;41.50;83.89;;
38366;Laerm;943;51.568;6.998;2023-05-18T13:06:07;50.24;39.92;78.76;;
38366;Laerm;943;51.568;6.998;2023-05-18T13:08:39;48.51;40.47;70.90;;
38366;Laerm;943;51.568;6.998;2023-05-18T13:11:08;48.88;39.32;68.51;;
38366;Laerm;943;51.568;6.998;2023-05-18T13:14:06;47.39;38.63;65.65;;
38366;Laerm;943;51.568;6.998;2023-05-18T13:16:43;50.21;39.78;70.87;;
38366;Laerm;943;51.568;6.998;2023-05-18T13:19:17;51.49;42.34;67.72;;
38366;Laerm;943;51.568;6.998;2023-05-18T13:21:56;46.13;39.36;61.81;;
38366;Laerm;943;51.568;6.998;2023-05-18T13:24:24;50.72;40.70;75.90;;
38366;Laerm;943;51.568;6.998;2023-05-18T13:26:52;51.02;40.14;70.63;;
38366;Laerm;943;51.568;6.998;2023-05-18T13:29:20;47.44;41.19;59.41;;
38366;Laerm;943;51.568;6.998;2023-05-18T13:31:48;46.94;39.84;69.12;;
38366;Laerm;943;51.568;6.998;2023-05-18T13:34:16;49.93;40.92;68.44;;
38366;Laerm;943;51.568;6.998;2023-05-18T13:36:44;48.15;39.60;64.07;;
38366;Laerm;943;51.568;6.998;2023-05-18T13:39:12;50.07;41.25;71.17;;
38366;Laerm;943;51.568;6.998;2023-05-18T13:41:39;50.97;39.85;76.60;;
38366;Laerm;943;51.568;6.998;2023-05-18T13:44:07;49.19;37.70;74.52;;
38366;Laerm;943;51.568;6.998;2023-05-18T13:46:37;46.22;40.16;61.93;;
38366;Laerm;943;51.568;6.998;2023-05-18T13:49:05;49.57;40.31;73.75;;
38366;Laerm;943;51.568;6.998;2023-05-18T13:51:33;54.95;39.69;83.72;;
38366;Laerm;943;51.568;6.998;2023-05-18T13:54:01;47.90;40.08;65.19;;
38366;Laerm;943;51.568;6.998;2023-05-18T13:56:30;49.31;38.78;70.91;;
38366;Laerm;943;51.568;6.998;2023-05-18T13:58:58;47.39;40.28;65.06;;
38366;Laerm;943;51.568;6.998;2023-05-18T14:01:26;52.56;40.78;75.80;;
38366;Laerm;943;51.568;6.998;2023-05-18T14:03:59;49.60;39.36;72.60;;
38366;Laerm;943;51.568;6.998;2023-05-18T14:06:27;46.37;39.45;67.27;;
38366;Laerm;943;51.568;6.998;2023-05-18T14:08:55;43.75;38.16;55.22;;
38366;Laerm;943;51.568;6.998;2023-05-18T14:11:23;46.54;40.32;63.10;;
38366;Laerm;943;51.568;6.998;2023-05-18T14:13:51;47.79;40.09;63.81;;
38366;Laerm;943;51.568;6.998;2023-05-18T14:16:19;47.83;39.87;66.78;;
38366;Laerm;943;51.568;6.998;2023-05-18T14:18:47;48.08;39.09;69.54;;
38366;Laerm;943;51.568;6.998;2023-05-18T14:21:15;48.79;39.98;64.66;;
38366;Laerm;943;51.568;6.998;2023-05-18T14:23:43;48.53;41.58;73.66;;
38366;Laerm;943;51.568;6.998;2023-05-18T14:26:10;50.24;40.22;72.39;;
38366;Laerm;943;51.568;6.998;2023-05-18T14:28:38;51.56;41.28;74.41;;
38366;Laerm;943;51.568;6.998;2023-05-18T14:31:06;45.63;39.05;61.82;;
38366;Laerm;943;51.568;6.998;2023-05-18T14:33:34;55.62;39.26;76.14;;
38366;Laerm;943;51.568;6.998;2023-05-18T14:36:03;47.20;40.33;67.60;;
38366;Laerm;943;51.568;6.998;2023-05-18T14:38:31;48.66;39.43;65.97;;
38366;Laerm;943;51.568;6.998;2023-05-18T14:40:59;51.26;42.34;76.14;;
38366;Laerm;943;51.568;6.998;2023-05-18T14:43:27;50.97;39.70;69.29;;
38366;Laerm;943;51.568;6.998;2023-05-18T14:45:54;46.19;40.07;65.86;;